createdAt,value
2023-03-28T00:00:34.810Z,57.04
2023-03-28T00:01:34.781Z,56.72
2023-03-28T00:02:34.821Z,55.75
2023-03-28T00:03:34.944Z,54.30
2023-03-28T00:04:34.796Z,52.37
2023-03-28T00:05:34.795Z,56.24
2023-03-28T00:06:34.794Z,58.81
2023-03-28T00:07:34.763Z,57.04
2023-03-28T00:08:34.837Z,55.43
2023-03-28T00:09:34.762Z,58.33
2023-03-28T00:10:34.776Z,50.76
2023-03-28T00:11:34.737Z,56.24
2023-03-28T00:12:34.750Z,55.11
2023-03-28T00:13:34.782Z,56.24
2023-03-28T00:14:34.784Z,57.69
2023-03-28T00:15:34.726Z,60.10
2023-03-28T00:16:34.788Z,58.65
2023-03-28T00:17:34.754Z,55.27
2023-03-28T00:18:34.735Z,55.43
2023-03-28T00:19:34.717Z,54.95
2023-03-28T00:20:34.727Z,54.14
2023-03-28T00:21:34.708Z,56.72
2023-03-28T00:22:34.694Z,55.91
2023-03-28T00:23:34.694Z,56.24
2023-03-28T00:24:34.711Z,56.40
2023-03-28T00:25:34.656Z,55.43
2023-03-28T00:26:34.678Z,57.52
2023-03-28T00:27:34.656Z,56.56
2023-03-28T00:28:34.685Z,56.72
2023-03-28T00:29:34.631Z,53.50
2023-03-28T00:30:34.681Z,55.59
2023-03-28T00:31:34.743Z,58.33
2023-03-28T00:32:34.623Z,55.43
2023-03-28T00:33:34.632Z,55.91
2023-03-28T00:34:34.621Z,57.85
2023-03-28T00:35:34.690Z,58.81
2023-03-28T00:36:34.613Z,57.36
2023-03-28T00:37:34.598Z,56.56
2023-03-28T00:38:34.613Z,58.49
2023-03-28T00:39:34.580Z,54.62
2023-03-28T00:40:34.601Z,57.69
2023-03-28T00:41:34.575Z,55.11
2023-03-28T00:42:34.570Z,56.72
2023-03-28T00:43:34.557Z,57.20
2023-03-28T00:44:34.588Z,55.59
2023-03-28T00:45:34.544Z,56.40
2023-03-28T00:46:34.619Z,56.40
2023-03-28T00:47:34.563Z,57.85
2023-03-28T00:48:34.564Z,56.40
2023-03-28T00:49:34.524Z,55.27
2023-03-28T00:50:34.525Z,51.24
2023-03-28T00:51:34.506Z,51.56
2023-03-28T00:52:34.532Z,49.31
2023-03-28T00:53:34.521Z,54.46
2023-03-28T00:54:34.529Z,56.40
2023-03-28T00:55:34.472Z,57.69
2023-03-28T00:56:34.516Z,54.79
2023-03-28T00:57:34.487Z,53.50
2023-03-28T00:58:34.491Z,57.85
2023-03-28T00:59:34.462Z,57.69
2023-03-28T01:00:34.465Z,59.62
2023-03-28T01:01:34.443Z,55.11
2023-03-28T01:02:34.527Z,53.98
2023-03-28T01:03:34.516Z,50.27
2023-03-28T01:04:34.449Z,49.95
2023-03-28T01:05:34.435Z,54.14
2023-03-28T01:06:34.441Z,52.69
2023-03-28T01:07:34.382Z,51.40
2023-03-28T01:08:34.406Z,55.27
2023-03-28T01:09:34.373Z,57.20
2023-03-28T01:10:34.385Z,55.91
2023-03-28T01:11:34.367Z,56.24
2023-03-28T01:12:34.415Z,55.75
2023-03-28T01:13:34.347Z,54.46
2023-03-28T01:14:34.371Z,54.79
2023-03-28T01:15:34.347Z,51.56
2023-03-28T01:16:34.442Z,55.11
2023-03-28T01:17:34.424Z,51.88
2023-03-28T01:18:34.327Z,56.56
2023-03-28T01:19:34.319Z,54.14
2023-03-28T01:20:34.314Z,53.50
2023-03-28T01:21:34.319Z,55.91
2023-03-28T01:22:34.314Z,54.95
2023-03-28T01:23:34.293Z,53.82
2023-03-28T01:24:34.325Z,53.01
2023-03-28T01:25:34.281Z,56.72
2023-03-28T01:26:34.307Z,54.46
2023-03-28T01:27:34.264Z,52.53
2023-03-28T01:28:34.278Z,55.91
2023-03-28T01:29:34.240Z,55.43
2023-03-28T01:30:34.265Z,55.91
2023-03-28T01:31:34.281Z,53.98
2023-03-28T01:32:34.327Z,54.46
2023-03-28T01:33:34.269Z,50.92
2023-03-28T01:34:34.253Z,48.02
2023-03-28T01:35:34.239Z,53.98
2023-03-28T01:36:35.617Z,54.62
2023-03-28T01:37:34.216Z,54.62
2023-03-28T01:38:34.242Z,56.72
2023-03-28T01:39:34.190Z,54.46
2023-03-28T01:40:34.217Z,55.27
2023-03-28T01:41:34.175Z,55.59
2023-03-28T01:42:34.185Z,56.24
2023-03-28T01:43:34.153Z,57.36
2023-03-28T01:44:34.203Z,55.43
2023-03-28T01:45:34.188Z,57.20
2023-03-28T01:46:34.176Z,58.17
2023-03-28T01:47:34.146Z,58.01
2023-03-28T01:48:34.173Z,53.82
2023-03-28T01:49:34.175Z,53.98
2023-03-28T01:50:34.129Z,53.50
2023-03-28T01:51:34.115Z,51.88
2023-03-28T01:52:34.125Z,55.59
2023-03-28T01:53:34.099Z,55.59
2023-03-28T01:54:34.107Z,58.17
2023-03-28T01:55:34.116Z,55.91
2023-03-28T01:56:35.198Z,55.11
2023-03-28T01:57:34.161Z,58.65
2023-03-28T01:58:34.142Z,55.75
2023-03-28T01:59:34.076Z,56.24
2023-03-28T02:00:34.075Z,56.88
2023-03-28T02:01:34.095Z,58.81
2023-03-28T02:02:34.183Z,55.59
2023-03-28T02:03:34.066Z,57.20
2023-03-28T02:04:34.089Z,58.65
2023-03-28T02:05:34.023Z,56.88
2023-03-28T02:06:34.032Z,56.88
2023-03-28T02:07:34.028Z,56.88
2023-03-28T02:08:34.036Z,55.43
2023-03-28T02:09:34.000Z,56.72
2023-03-28T02:10:34.046Z,57.20
2023-03-28T02:11:33.995Z,57.69
2023-03-28T02:12:33.997Z,56.72
2023-03-28T02:13:34.005Z,55.75
2023-03-28T02:14:34.001Z,55.75
2023-03-28T02:15:33.967Z,57.85
2023-03-28T02:16:34.121Z,58.17
2023-03-28T02:17:34.007Z,57.20
2023-03-28T02:18:33.988Z,57.52
2023-03-28T02:19:33.950Z,59.30
2023-03-28T02:20:33.965Z,60.42
2023-03-28T02:21:33.948Z,57.36
2023-03-28T02:22:33.955Z,53.01
2023-03-28T02:23:33.922Z,55.11
2023-03-28T02:24:33.928Z,55.91
2023-03-28T02:25:33.903Z,57.85
2023-03-28T02:26:33.932Z,56.24
2023-03-28T02:27:33.901Z,57.52
2023-03-28T02:28:33.907Z,55.75
2023-03-28T02:29:33.885Z,58.97
2023-03-28T02:30:33.917Z,55.75
2023-03-28T02:31:33.939Z,55.59
2023-03-28T02:32:34.026Z,55.59
2023-03-28T02:33:33.875Z,54.62
2023-03-28T02:34:33.878Z,54.62
2023-03-28T02:35:33.876Z,53.82
2023-03-28T02:36:33.882Z,55.43
2023-03-28T02:37:33.882Z,58.01
2023-03-28T02:38:33.852Z,56.07
2023-03-28T02:39:33.836Z,56.40
2023-03-28T02:40:33.834Z,55.75
2023-03-28T02:41:33.808Z,55.91
2023-03-28T02:42:33.846Z,55.27
2023-03-28T02:43:33.806Z,60.10
2023-03-28T02:44:33.806Z,59.94
2023-03-28T02:45:33.824Z,56.24
2023-03-28T02:46:33.831Z,56.72
2023-03-28T02:47:33.813Z,57.85
2023-03-28T02:48:33.795Z,57.85
2023-03-28T02:49:43.834Z,58.97
2023-03-28T02:50:34.770Z,60.59
2023-03-28T02:51:33.784Z,58.49
2023-03-28T02:52:33.774Z,60.26
2023-03-28T02:53:33.729Z,61.39
2023-03-28T02:54:33.761Z,58.65
2023-03-28T02:55:33.723Z,60.10
2023-03-28T02:56:33.734Z,57.04
2023-03-28T02:57:33.724Z,61.71
2023-03-28T02:58:33.731Z,58.97
2023-03-28T02:59:33.690Z,57.85
2023-03-28T03:00:33.704Z,59.94
2023-03-28T03:01:33.800Z,56.24
2023-03-28T03:02:33.733Z,59.78
2023-03-28T03:03:33.756Z,58.65
2023-03-28T03:04:33.694Z,59.78
2023-03-28T03:05:33.662Z,61.23
2023-03-28T03:06:33.682Z,60.26
2023-03-28T03:07:33.648Z,60.59
2023-03-28T03:08:33.656Z,58.97
2023-03-28T03:09:33.627Z,60.91
2023-03-28T03:10:33.665Z,62.36
2023-03-28T03:11:33.633Z,59.78
2023-03-28T03:12:33.623Z,59.78
2023-03-28T03:13:33.610Z,60.91
2023-03-28T03:14:33.602Z,58.97
2023-03-28T03:15:33.596Z,60.59
2023-03-28T03:16:33.670Z,59.46
2023-03-28T03:17:33.623Z,58.33
2023-03-28T03:18:33.595Z,59.14
2023-03-28T03:19:33.598Z,57.69
2023-03-28T03:20:33.790Z,60.10
2023-03-28T03:21:33.544Z,59.30
2023-03-28T03:22:33.616Z,57.69
2023-03-28T03:23:33.565Z,60.59
2023-03-28T03:24:33.567Z,58.97
2023-03-28T03:25:33.554Z,58.81
2023-03-28T03:26:33.543Z,57.85
2023-03-28T03:27:33.521Z,57.04
2023-03-28T03:28:33.533Z,60.91
2023-03-28T03:29:38.935Z,60.42
2023-03-28T03:30:34.519Z,59.78
2023-03-28T03:31:33.526Z,56.40
2023-03-28T03:32:33.652Z,55.75
2023-03-28T03:33:33.504Z,59.78
2023-03-28T03:34:33.503Z,59.78
2023-03-28T03:35:33.610Z,60.26
2023-03-28T03:36:33.491Z,62.04
2023-03-28T03:37:33.470Z,62.20
2023-03-28T03:38:33.481Z,63.33
2023-03-28T03:39:33.453Z,60.26
2023-03-28T03:40:33.460Z,62.36
2023-03-28T03:41:33.421Z,59.78
2023-03-28T03:42:33.457Z,61.55
2023-03-28T03:43:33.414Z,61.39
2023-03-28T03:44:33.448Z,59.46
2023-03-28T03:45:33.411Z,62.20
2023-03-28T03:46:33.450Z,61.07
2023-03-28T03:47:33.434Z,63.65
2023-03-28T03:48:33.411Z,60.10
2023-03-28T03:49:33.385Z,61.55
2023-03-28T03:50:33.433Z,62.84
2023-03-28T03:51:33.363Z,62.04
2023-03-28T03:52:33.390Z,58.49
2023-03-28T03:53:33.387Z,63.16
2023-03-28T03:54:33.950Z,63.81
2023-03-28T03:55:33.360Z,64.29
2023-03-28T03:56:33.366Z,64.78
2023-03-28T03:57:33.332Z,62.52
2023-03-28T03:58:33.345Z,57.85
2023-03-28T03:59:33.312Z,58.01
2023-03-28T04:00:33.340Z,58.65
2023-03-28T04:01:33.376Z,64.45
2023-03-28T04:02:33.495Z,62.04
2023-03-28T04:03:33.327Z,64.94
2023-03-28T04:04:33.403Z,62.20
2023-03-28T04:05:33.302Z,61.23
2023-03-28T04:06:33.322Z,64.29
2023-03-28T04:07:33.331Z,64.45
2023-03-28T04:08:33.346Z,63.16
2023-03-28T04:09:33.318Z,63.49
2023-03-28T04:10:33.403Z,65.42
2023-03-28T04:11:33.257Z,65.10
2023-03-28T04:12:33.358Z,66.23
2023-03-28T04:13:33.250Z,62.84
2023-03-28T04:14:33.232Z,63.65
2023-03-28T04:15:33.205Z,64.13
2023-03-28T04:16:40.873Z,62.68
2023-03-28T04:17:34.246Z,65.26
2023-03-28T04:18:33.227Z,63.16
2023-03-28T04:19:33.186Z,62.68
2023-03-28T04:20:33.192Z,62.68
2023-03-28T04:21:33.212Z,60.59
2023-03-28T04:22:33.194Z,61.71
2023-03-28T04:23:34.002Z,61.39
2023-03-28T04:24:33.194Z,63.97
2023-03-28T04:25:33.148Z,64.78
2023-03-28T04:26:33.179Z,65.58
2023-03-28T04:27:33.138Z,65.42
2023-03-28T04:28:33.195Z,63.16
2023-03-28T04:29:33.120Z,62.20
2023-03-28T04:30:33.158Z,64.13
2023-03-28T04:31:33.157Z,65.42
2023-03-28T04:32:33.153Z,64.13
2023-03-28T04:33:33.126Z,62.84
2023-03-28T04:34:33.111Z,63.33
2023-03-28T04:35:33.305Z,64.94
2023-03-28T04:36:33.184Z,63.81
2023-03-28T04:37:33.076Z,63.97
2023-03-28T04:38:33.095Z,63.97
2023-03-28T04:39:33.085Z,62.68
2023-03-28T04:40:33.089Z,62.68
2023-03-28T04:41:33.078Z,65.90
2023-03-28T04:42:33.126Z,63.97
2023-03-28T04:43:33.067Z,63.97
2023-03-28T04:44:33.064Z,64.13
2023-03-28T04:45:33.098Z,64.61
2023-03-28T04:46:33.044Z,62.20
2023-03-28T04:47:33.091Z,63.65
2023-03-28T04:48:33.053Z,63.65
2023-03-28T04:49:33.015Z,60.42
2023-03-28T04:50:35.179Z,61.23
2023-03-28T04:51:32.990Z,63.81
2023-03-28T04:52:33.011Z,64.45
2023-03-28T04:53:32.980Z,62.20
2023-03-28T04:54:33.027Z,63.33
2023-03-28T04:55:32.965Z,61.87
2023-03-28T04:56:33.007Z,60.10
2023-03-28T04:57:32.957Z,62.04
2023-03-28T04:58:32.999Z,63.33
2023-03-28T04:59:32.954Z,63.49
2023-03-28T05:00:32.953Z,61.55
2023-03-28T05:01:32.972Z,63.97
2023-03-28T05:02:33.007Z,61.23
2023-03-28T05:03:33.061Z,61.07
2023-03-28T05:04:32.940Z,60.91
2023-03-28T05:05:32.903Z,61.07
2023-03-28T05:06:32.931Z,62.20
2023-03-28T05:07:32.898Z,60.75
2023-03-28T05:08:32.904Z,60.59
2023-03-28T05:09:32.874Z,63.00
2023-03-28T05:10:32.892Z,60.10
2023-03-28T05:11:32.894Z,61.87
2023-03-28T05:12:32.881Z,62.04
2023-03-28T05:13:32.865Z,63.49
2023-03-28T05:14:32.873Z,60.91
2023-03-28T05:15:32.852Z,57.69
2023-03-28T05:16:32.892Z,60.91
2023-03-28T05:17:32.893Z,60.42
2023-03-28T05:18:32.844Z,62.04
2023-03-28T05:19:32.816Z,64.61
2023-03-28T05:20:32.831Z,60.59
2023-03-28T05:21:32.858Z,61.23
2023-03-28T05:22:32.807Z,60.75
2023-03-28T05:23:32.792Z,63.33
2023-03-28T05:24:34.522Z,61.23
2023-03-28T05:25:32.789Z,63.00
2023-03-28T05:26:32.780Z,63.65
2023-03-28T05:27:32.771Z,61.71
2023-03-28T05:28:32.783Z,60.75
2023-03-28T05:29:32.737Z,62.04
2023-03-28T05:30:32.777Z,61.23
2023-03-28T05:31:32.850Z,62.68
2023-03-28T05:32:32.755Z,62.36
2023-03-28T05:33:32.717Z,61.71
2023-03-28T05:34:32.726Z,60.75
2023-03-28T05:35:32.747Z,60.91
2023-03-28T05:36:32.745Z,61.07
2023-03-28T05:37:32.713Z,63.00
2023-03-28T05:38:32.709Z,62.68
2023-03-28T05:39:32.680Z,61.23
2023-03-28T05:40:32.683Z,61.87
2023-03-28T05:41:32.681Z,61.23
2023-03-28T05:42:32.708Z,59.94
2023-03-28T05:43:39.678Z,59.62
2023-03-28T05:44:32.663Z,62.36
2023-03-28T05:45:32.676Z,62.20
2023-03-28T05:46:32.660Z,61.23
2023-03-28T05:47:32.678Z,62.68
2023-03-28T05:48:32.657Z,60.10
2023-03-28T05:49:32.637Z,61.39
2023-03-28T05:50:32.612Z,59.78
2023-03-28T05:51:32.606Z,59.78
2023-03-28T05:52:32.603Z,61.39
2023-03-28T05:53:32.588Z,62.20
2023-03-28T05:54:32.631Z,60.59
2023-03-28T05:55:33.796Z,61.71
2023-03-28T05:56:32.575Z,62.36
2023-03-28T05:57:32.573Z,60.10
2023-03-28T05:58:32.570Z,61.23
2023-03-28T05:59:32.596Z,62.04
2023-03-28T06:00:32.625Z,63.00
2023-03-28T06:01:32.545Z,61.07
2023-03-28T06:02:32.542Z,61.39
2023-03-28T06:03:32.579Z,61.87
2023-03-28T06:04:32.569Z,61.07
2023-03-28T06:05:32.518Z,63.16
2023-03-28T06:06:32.538Z,63.65
2023-03-28T06:07:42.045Z,61.87
2023-03-28T06:08:33.488Z,61.07
2023-03-28T06:09:32.503Z,63.49
2023-03-28T06:10:32.625Z,61.39
2023-03-28T06:11:32.479Z,63.81
2023-03-28T06:12:32.482Z,63.33
2023-03-28T06:13:32.450Z,63.81
2023-03-28T06:14:32.457Z,61.39
2023-03-28T06:15:32.436Z,61.39
2023-03-28T06:16:32.458Z,62.52
2023-03-28T06:17:32.446Z,62.68
2023-03-28T06:18:32.452Z,64.29
2023-03-28T06:19:32.444Z,62.84
2023-03-28T06:20:32.423Z,60.10
2023-03-28T06:21:32.407Z,55.75
2023-03-28T06:22:32.432Z,53.98
2023-03-28T06:23:32.413Z,54.46
2023-03-28T06:24:32.392Z,57.04
2023-03-28T06:25:32.364Z,56.72
2023-03-28T06:26:32.385Z,56.24
2023-03-28T06:27:32.363Z,54.95
2023-03-28T06:28:32.380Z,55.75
2023-03-28T06:29:32.371Z,56.72
2023-03-28T06:30:32.367Z,59.62
2023-03-28T06:31:32.422Z,59.14
2023-03-28T06:32:32.369Z,60.42
2023-03-28T06:33:32.341Z,61.07
2023-03-28T06:34:32.341Z,61.39
2023-03-28T06:35:32.362Z,61.23
2023-03-28T06:36:32.319Z,61.39
2023-03-28T06:37:32.346Z,58.49
2023-03-28T06:38:32.367Z,59.46
2023-03-28T06:39:32.289Z,61.55
2023-03-28T06:40:32.308Z,60.10
2023-03-28T06:41:32.283Z,60.26
2023-03-28T06:42:32.281Z,59.62
2023-03-28T06:43:32.291Z,60.10
2023-03-28T06:44:32.284Z,60.42
2023-03-28T06:45:32.264Z,61.39
2023-03-28T06:46:32.319Z,59.14
2023-03-28T06:47:32.283Z,60.42
2023-03-28T06:48:33.636Z,59.94
2023-03-28T06:49:32.271Z,63.49
2023-03-28T06:50:32.245Z,60.59
2023-03-28T06:51:32.252Z,60.59
2023-03-28T06:52:32.257Z,60.26
2023-03-28T06:53:32.219Z,60.10
2023-03-28T06:54:32.252Z,62.52
2023-03-28T06:55:32.217Z,61.71
2023-03-28T06:56:32.214Z,59.94
2023-03-28T06:57:32.187Z,62.68
2023-03-28T06:58:32.201Z,61.39
2023-03-28T06:59:32.208Z,61.07
2023-03-28T07:00:32.200Z,62.68
2023-03-28T07:01:32.203Z,62.68
2023-03-28T07:02:32.280Z,60.26
2023-03-28T07:03:32.307Z,58.97
2023-03-28T07:04:32.151Z,58.49
2023-03-28T07:05:32.172Z,58.49
2023-03-28T07:06:32.154Z,58.33
2023-03-28T07:07:32.152Z,61.23
2023-03-28T07:08:32.157Z,61.87
2023-03-28T07:09:32.119Z,60.75
2023-03-28T07:10:32.131Z,62.20
2023-03-28T07:11:32.128Z,62.04
2023-03-28T07:12:32.184Z,62.20
2023-03-28T07:13:32.105Z,58.01
2023-03-28T07:14:32.126Z,59.30
2023-03-28T07:15:32.086Z,57.69
2023-03-28T07:16:32.136Z,55.75
2023-03-28T07:17:32.142Z,61.71
2023-03-28T07:18:32.129Z,60.26
2023-03-28T07:19:32.102Z,58.49
2023-03-28T07:20:32.092Z,59.62
2023-03-28T07:21:32.071Z,57.85
2023-03-28T07:22:32.098Z,55.59
2023-03-28T07:23:32.085Z,59.62
2023-03-28T07:24:32.112Z,57.20
2023-03-28T07:25:32.025Z,59.78
2023-03-28T07:26:32.083Z,59.30
2023-03-28T07:27:32.055Z,56.07
2023-03-28T07:28:32.055Z,58.97
2023-03-28T07:29:32.027Z,54.95
2023-03-28T07:30:32.029Z,56.88
2023-03-28T07:31:32.078Z,61.07
2023-03-28T07:32:42.859Z,58.65
2023-03-28T07:33:36.788Z,58.97
2023-03-28T07:34:33.005Z,58.49
2023-03-28T07:35:32.017Z,56.72
2023-03-28T07:36:32.023Z,57.04
2023-03-28T07:37:31.975Z,57.20
2023-03-28T07:38:31.976Z,57.20
2023-03-28T07:39:31.947Z,59.30
2023-03-28T07:40:32.029Z,56.72
2023-03-28T07:41:31.940Z,56.40
2023-03-28T07:42:31.957Z,56.88
2023-03-28T07:43:31.957Z,58.17
2023-03-28T07:44:31.962Z,57.52
2023-03-28T07:45:31.928Z,55.11
2023-03-28T07:46:31.947Z,56.07
2023-03-28T07:47:31.932Z,55.91
2023-03-28T07:48:31.903Z,58.65
2023-03-28T07:49:31.901Z,57.20
2023-03-28T07:50:31.897Z,55.91
2023-03-28T07:51:31.867Z,59.62
2023-03-28T07:52:31.879Z,57.69
2023-03-28T07:53:31.848Z,56.24
2023-03-28T07:54:31.889Z,55.91
2023-03-28T07:55:37.136Z,56.07
2023-03-28T07:56:32.870Z,56.72
2023-03-28T07:57:31.823Z,56.88
2023-03-28T07:58:31.838Z,53.82
2023-03-28T07:59:31.827Z,53.98
2023-03-28T08:00:31.852Z,50.43
2023-03-28T08:01:31.808Z,50.43
2023-03-28T08:02:31.863Z,53.01
2023-03-28T08:03:31.877Z,56.40
2023-03-28T08:04:31.806Z,54.79
2023-03-28T08:05:31.884Z,54.62
2023-03-28T08:06:32.666Z,52.69
2023-03-28T08:07:31.744Z,55.11
2023-03-28T08:08:31.765Z,58.01
2023-03-28T08:09:31.744Z,55.91
2023-03-28T08:10:31.750Z,55.11
2023-03-28T08:11:31.732Z,58.01
2023-03-28T08:12:31.728Z,58.81
2023-03-28T08:13:31.709Z,58.81
2023-03-28T08:14:31.734Z,55.75
2023-03-28T08:15:31.699Z,54.79
2023-03-28T08:16:31.849Z,57.20
2023-03-28T08:17:31.718Z,56.72
2023-03-28T08:18:31.710Z,58.01
2023-03-28T08:19:31.674Z,57.85
2023-03-28T08:20:31.674Z,58.97
2023-03-28T08:21:31.665Z,56.07
2023-03-28T08:22:31.660Z,53.66
2023-03-28T08:23:31.653Z,54.46
2023-03-28T08:24:35.998Z,57.85
2023-03-28T08:25:31.620Z,53.33
2023-03-28T08:26:31.626Z,56.56
2023-03-28T08:27:31.603Z,59.94
2023-03-28T08:28:31.622Z,56.56
2023-03-28T08:29:31.617Z,58.17
2023-03-28T08:30:31.610Z,57.20
2023-03-28T08:31:31.625Z,58.17
2023-03-28T08:32:31.613Z,56.88
2023-03-28T08:33:31.627Z,56.72
2023-03-28T08:34:31.613Z,56.56
2023-03-28T08:35:31.580Z,57.20
2023-03-28T08:36:31.598Z,55.59
2023-03-28T08:37:31.557Z,53.66
2023-03-28T08:38:31.574Z,55.59
2023-03-28T08:39:31.535Z,53.82
2023-03-28T08:40:31.589Z,56.24
2023-03-28T08:41:31.508Z,55.27
2023-03-28T08:42:31.527Z,54.79
2023-03-28T08:43:31.509Z,60.26
2023-03-28T08:44:31.520Z,55.59
2023-03-28T08:45:31.484Z,55.59
2023-03-28T08:46:31.571Z,59.62
2023-03-28T08:47:31.561Z,57.52
2023-03-28T08:48:31.505Z,58.81
2023-03-28T08:49:31.457Z,57.20
2023-03-28T08:50:31.490Z,59.94
2023-03-28T08:51:31.477Z,60.10
2023-03-28T08:52:31.468Z,57.36
2023-03-28T08:53:31.435Z,56.07
2023-03-28T08:54:31.493Z,55.43
2023-03-28T08:55:31.449Z,56.88
2023-03-28T08:56:31.439Z,60.10
2023-03-28T08:57:31.418Z,56.72
2023-03-28T08:58:31.417Z,57.69
2023-03-28T08:59:31.419Z,57.36
2023-03-28T09:00:31.453Z,58.65
2023-03-28T09:01:31.387Z,56.88
2023-03-28T09:02:31.548Z,56.40
2023-03-28T09:03:31.464Z,57.20
2023-03-28T09:04:31.433Z,56.56
2023-03-28T09:05:31.361Z,52.85
2023-03-28T09:06:31.380Z,57.52
2023-03-28T09:07:31.361Z,55.59
2023-03-28T09:08:31.365Z,56.56
2023-03-28T09:09:31.362Z,57.52
2023-03-28T09:10:31.388Z,56.56
2023-03-28T09:11:31.368Z,56.40
2023-03-28T09:12:31.336Z,55.59
2023-03-28T09:13:31.301Z,55.75
2023-03-28T09:14:31.322Z,60.10
2023-03-28T09:15:31.569Z,59.30
2023-03-28T09:16:31.346Z,58.65
2023-03-28T09:17:31.333Z,57.20
2023-03-28T09:18:31.313Z,56.72
2023-03-28T09:19:40.529Z,55.27
2023-03-28T09:20:32.282Z,53.66
2023-03-28T09:21:31.295Z,55.43
2023-03-28T09:22:31.315Z,55.75
2023-03-28T09:23:31.275Z,55.59
2023-03-28T09:24:31.259Z,53.01
2023-03-28T09:25:31.241Z,57.85
2023-03-28T09:26:31.261Z,58.65
2023-03-28T09:27:31.218Z,58.01
2023-03-28T09:28:31.251Z,56.40
2023-03-28T09:29:31.222Z,58.33
2023-03-28T09:30:31.217Z,57.20
2023-03-28T09:31:31.250Z,56.72
2023-03-28T09:32:31.245Z,55.27
2023-03-28T09:33:31.180Z,51.88
2023-03-28T09:34:31.194Z,56.24
2023-03-28T09:35:31.174Z,49.79
2023-03-28T09:36:41.327Z,49.95
2023-03-28T09:37:32.188Z,54.62
2023-03-28T09:38:31.166Z,56.72
2023-03-28T09:39:31.152Z,53.50
2023-03-28T09:40:31.138Z,54.79
2023-03-28T09:41:31.113Z,55.43
2023-03-28T09:42:31.135Z,56.07
2023-03-28T09:43:31.094Z,54.30
2023-03-28T09:44:32.094Z,53.33
2023-03-28T09:45:31.115Z,55.75
2023-03-28T09:46:31.104Z,54.46
2023-03-28T09:47:31.160Z,55.43
2023-03-28T09:48:31.219Z,56.07
2023-03-28T09:49:31.050Z,55.59
2023-03-28T09:50:31.071Z,57.52
2023-03-28T09:51:31.036Z,53.50
2023-03-28T09:52:31.060Z,54.62
2023-03-28T09:53:32.917Z,55.75
2023-03-28T09:54:31.055Z,54.14
2023-03-28T09:55:31.004Z,52.85
2023-03-28T09:56:30.994Z,53.33
2023-03-28T09:57:31.001Z,53.98
2023-03-28T09:58:31.011Z,55.27
2023-03-28T09:59:30.984Z,53.01
2023-03-28T10:00:30.975Z,51.88
2023-03-28T10:01:31.049Z,51.56
2023-03-28T10:02:30.975Z,51.40
2023-03-28T10:03:30.928Z,54.95
2023-03-28T10:04:31.030Z,53.82
2023-03-28T10:05:30.913Z,53.33
2023-03-28T10:06:30.962Z,55.11
2023-03-28T10:07:30.956Z,53.33
2023-03-28T10:08:30.913Z,52.21
2023-03-28T10:09:30.908Z,53.98
2023-03-28T10:10:30.908Z,55.11
2023-03-28T10:11:30.892Z,55.27
2023-03-28T10:12:30.877Z,58.81
2023-03-28T10:13:30.842Z,58.01
2023-03-28T10:14:30.878Z,55.27
2023-03-28T10:15:30.848Z,53.33
2023-03-28T10:16:30.924Z,57.04
2023-03-28T10:17:30.863Z,56.72
2023-03-28T10:18:30.833Z,57.04
2023-03-28T10:19:30.797Z,51.40
2023-03-28T10:20:30.810Z,52.05
2023-03-28T10:21:30.795Z,55.59
2023-03-28T10:22:30.819Z,57.20
2023-03-28T10:23:30.764Z,56.07
2023-03-28T10:24:30.758Z,52.69
2023-03-28T10:25:30.777Z,52.53
2023-03-28T10:26:30.751Z,54.79
2023-03-28T10:27:30.748Z,55.91
2023-03-28T10:28:30.759Z,57.36
2023-03-28T10:29:30.717Z,58.97
2023-03-28T10:30:30.734Z,58.97
2023-03-28T10:31:30.743Z,55.75
2023-03-28T10:32:30.739Z,53.50
2023-03-28T10:33:30.683Z,47.86
2023-03-28T10:34:30.697Z,51.72
2023-03-28T10:35:30.849Z,53.98
2023-03-28T10:36:30.674Z,56.07
2023-03-28T10:37:30.670Z,53.66
2023-03-28T10:38:30.651Z,54.14
2023-03-28T10:39:30.676Z,54.79
2023-03-28T10:40:30.754Z,56.07
2023-03-28T10:41:30.624Z,58.33
2023-03-28T10:42:30.628Z,56.24
2023-03-28T10:43:30.590Z,56.56
2023-03-28T10:44:30.608Z,57.20
2023-03-28T10:45:30.585Z,55.27
2023-03-28T10:46:30.634Z,53.82
2023-03-28T10:47:30.596Z,57.85
2023-03-28T10:48:30.586Z,56.56
2023-03-28T10:49:30.553Z,56.72
2023-03-28T10:50:30.562Z,53.98
2023-03-28T10:51:30.525Z,56.56
2023-03-28T10:52:30.532Z,56.72
2023-03-28T10:53:30.538Z,55.75
2023-03-28T10:54:30.525Z,57.52
2023-03-28T10:55:30.516Z,56.56
2023-03-28T10:56:30.505Z,55.75
2023-03-28T10:57:30.506Z,56.56
2023-03-28T10:58:30.493Z,57.20
2023-03-28T10:59:30.476Z,54.14
2023-03-28T11:00:30.473Z,54.95
2023-03-28T11:01:33.104Z,55.59
2023-03-28T11:02:30.578Z,56.40
2023-03-28T11:03:30.600Z,55.91
2023-03-28T11:04:30.449Z,56.07
2023-03-28T11:05:30.423Z,53.98
2023-03-28T11:06:30.433Z,49.15
2023-03-28T11:07:31.086Z,52.85
2023-03-28T11:08:30.414Z,56.56
2023-03-28T11:09:30.401Z,50.43
2023-03-28T11:10:30.425Z,50.27
2023-03-28T11:11:30.369Z,50.43
2023-03-28T11:12:33.910Z,52.53
2023-03-28T11:13:31.377Z,57.36
2023-03-28T11:14:30.379Z,54.62
2023-03-28T11:15:30.345Z,55.11
2023-03-28T11:16:30.396Z,49.31
2023-03-28T11:17:30.388Z,50.92
2023-03-28T11:18:30.321Z,54.46
2023-03-28T11:19:30.310Z,57.36
2023-03-28T11:20:30.483Z,58.01
2023-03-28T11:21:30.290Z,55.11
2023-03-28T11:22:30.321Z,50.43
2023-03-28T11:23:30.273Z,50.11
2023-03-28T11:24:30.271Z,54.30
2023-03-28T11:25:30.264Z,53.98
2023-03-28T11:26:30.260Z,52.53
2023-03-28T11:27:30.243Z,56.07
2023-03-28T11:28:30.289Z,58.49
2023-03-28T11:29:40.460Z,57.85
2023-03-28T11:30:31.237Z,56.88
2023-03-28T11:31:30.239Z,53.33
2023-03-28T11:32:30.329Z,53.50
2023-03-28T11:33:30.205Z,55.43
2023-03-28T11:34:30.227Z,53.66
2023-03-28T11:35:30.202Z,51.56
2023-03-28T11:36:30.179Z,56.56
2023-03-28T11:37:30.171Z,56.72
2023-03-28T11:38:30.162Z,55.43
2023-03-28T11:39:30.134Z,54.14
2023-03-28T11:40:30.180Z,57.36
2023-03-28T11:41:30.127Z,55.91
2023-03-28T11:42:30.125Z,58.17
2023-03-28T11:43:30.118Z,55.11
2023-03-28T11:44:30.146Z,54.46
2023-03-28T11:45:46.739Z,56.72
2023-03-28T11:46:31.161Z,55.75
2023-03-28T11:47:30.122Z,54.46
2023-03-28T11:48:30.087Z,52.69
2023-03-28T11:49:30.076Z,55.59
2023-03-28T11:50:30.068Z,53.98
2023-03-28T11:51:30.051Z,56.72
2023-03-28T11:52:30.071Z,54.30
2023-03-28T11:53:30.024Z,54.95
2023-03-28T11:54:30.039Z,55.59
2023-03-28T11:55:30.041Z,55.43
2023-03-28T11:56:30.017Z,55.91
2023-03-28T11:57:30.042Z,55.59
2023-03-28T11:58:30.023Z,55.91
2023-03-28T11:59:29.984Z,56.88
2023-03-28T12:00:33.795Z,54.30
2023-03-28T12:01:30.001Z,54.46
2023-03-28T12:02:30.271Z,52.37
2023-03-28T12:03:30.004Z,56.07
2023-03-28T12:04:30.012Z,53.17
2023-03-28T12:05:29.950Z,54.46
2023-03-28T12:06:29.967Z,56.07
2023-03-28T12:07:29.917Z,54.46
2023-03-28T12:08:29.930Z,54.62
2023-03-28T12:09:29.907Z,55.91
2023-03-28T12:10:29.920Z,56.07
2023-03-28T12:11:29.896Z,58.81
2023-03-28T12:12:29.925Z,57.04
2023-03-28T12:13:29.865Z,56.07
2023-03-28T12:14:29.878Z,53.82
2023-03-28T12:15:29.850Z,57.20
2023-03-28T12:16:29.901Z,57.36
2023-03-28T12:17:29.868Z,56.72
2023-03-28T12:18:29.850Z,57.04
2023-03-28T12:19:29.810Z,55.43
2023-03-28T12:20:29.829Z,55.43
2023-03-28T12:21:29.808Z,57.85
2023-03-28T12:22:29.852Z,53.01
2023-03-28T12:23:29.770Z,55.91
2023-03-28T12:24:29.795Z,54.46
2023-03-28T12:25:29.803Z,54.46
2023-03-28T12:26:29.760Z,56.56
2023-03-28T12:27:29.760Z,57.04
2023-03-28T12:28:29.759Z,57.20
2023-03-28T12:29:29.725Z,55.91
2023-03-28T12:30:29.922Z,57.04
2023-03-28T12:31:29.790Z,56.07
2023-03-28T12:32:29.818Z,57.36
2023-03-28T12:33:29.698Z,57.52
2023-03-28T12:34:29.723Z,55.59
2023-03-28T12:35:29.773Z,56.88
2023-03-28T12:36:29.690Z,59.14
2023-03-28T12:37:29.698Z,57.69
2023-03-28T12:38:29.682Z,57.69
2023-03-28T12:39:29.668Z,58.17
2023-03-28T12:40:29.647Z,59.14
2023-03-28T12:41:29.624Z,58.01
2023-03-28T12:42:29.633Z,54.62
2023-03-28T12:43:29.616Z,55.11
2023-03-28T12:44:29.633Z,58.65
2023-03-28T12:45:29.643Z,59.30
2023-03-28T12:46:29.712Z,57.52
2023-03-28T12:47:29.584Z,56.07
2023-03-28T12:48:29.585Z,57.36
2023-03-28T12:49:29.559Z,55.91
2023-03-28T12:50:29.586Z,56.07
2023-03-28T12:51:29.553Z,56.07
2023-03-28T12:52:29.559Z,55.75